sensor_id;sensor_type;location;lat;lon;timestamp;P1;durP1;ratioP1;P2;durP2;ratioP2
70953;SDS011;58618;47.490;8.736;2023-04-24T00:01:47;1.10;;;0.70;;
70953;SDS011;58618;47.490;8.736;2023-04-24T00:04:34;1.00;;;0.70;;
70953;SDS011;58618;47.490;8.736;2023-04-24T00:07:23;1.00;;;0.80;;
70953;SDS011;58618;47.490;8.736;2023-04-24T00:10:10;0.90;;;0.70;;
70953;SDS011;58618;47.490;8.736;2023-04-24T00:12:58;1.03;;;0.80;;
70953;SDS011;58618;47.490;8.736;2023-04-24T00:15:46;1.23;;;1.02;;
70953;SDS011;58618;47.490;8.736;2023-04-24T00:18:33;1.40;;;0.70;;
70953;SDS011;58618;47.490;8.736;2023-04-24T00:21:20;0.77;;;0.70;;
70953;SDS011;58618;47.490;8.736;2023-04-24T00:24:12;0.85;;;0.70;;
70953;SDS011;58618;47.490;8.736;2023-04-24T00:27:00;0.77;;;0.60;;
70953;SDS011;58618;47.490;8.736;2023-04-24T00:29:48;0.75;;;0.68;;
70953;SDS011;58618;47.490;8.736;2023-04-24T00:32:35;0.93;;;0.70;;
70953;SDS011;58618;47.490;8.736;2023-04-24T00:35:22;0.82;;;0.65;;
70953;SDS011;58618;47.490;8.736;2023-04-24T00:38:10;0.60;;;0.52;;
70953;SDS011;58618;47.490;8.736;2023-04-24T00:40:58;0.90;;;0.70;;
70953;SDS011;58618;47.490;8.736;2023-04-24T00:43:46;0.63;;;0.60;;
70953;SDS011;58618;47.490;8.736;2023-04-24T00:46:33;0.70;;;0.60;;
70953;SDS011;58618;47.490;8.736;2023-04-24T00:49:20;1.15;;;0.65;;
70953;SDS011;58618;47.490;8.736;2023-04-24T00:52:09;1.10;;;0.80;;
70953;SDS011;58618;47.490;8.736;2023-04-24T00:54:56;1.23;;;0.60;;
70953;SDS011;58618;47.490;8.736;2023-04-24T00:57:45;0.60;;;0.50;;
70953;SDS011;58618;47.490;8.736;2023-04-24T01:00:33;0.63;;;0.57;;
70953;SDS011;58618;47.490;8.736;2023-04-24T01:03:21;1.08;;;0.60;;
70953;SDS011;58618;47.490;8.736;2023-04-24T01:06:11;0.60;;;0.60;;
70953;SDS011;58618;47.490;8.736;2023-04-24T01:08:59;0.80;;;0.70;;
70953;SDS011;58618;47.490;8.736;2023-04-24T01:11:47;0.70;;;0.60;;
70953;SDS011;58618;47.490;8.736;2023-04-24T01:14:36;0.70;;;0.60;;
70953;SDS011;58618;47.490;8.736;2023-04-24T01:17:24;1.70;;;0.70;;
70953;SDS011;58618;47.490;8.736;2023-04-24T01:20:11;0.57;;;0.52;;
70953;SDS011;58618;47.490;8.736;2023-04-24T01:22:59;1.77;;;0.67;;
70953;SDS011;58618;47.490;8.736;2023-04-24T01:25:47;0.80;;;0.70;;
70953;SDS011;58618;47.490;8.736;2023-04-24T01:28:36;0.77;;;0.70;;
70953;SDS011;58618;47.490;8.736;2023-04-24T01:31:24;0.90;;;0.60;;
70953;SDS011;58618;47.490;8.736;2023-04-24T01:34:11;0.90;;;0.60;;
70953;SDS011;58618;47.490;8.736;2023-04-24T01:36:59;0.73;;;0.60;;
70953;SDS011;58618;47.490;8.736;2023-04-24T01:39:48;0.57;;;0.57;;
70953;SDS011;58618;47.490;8.736;2023-04-24T01:42:35;0.73;;;0.60;;
70953;SDS011;58618;47.490;8.736;2023-04-24T01:45:23;0.70;;;0.60;;
70953;SDS011;58618;47.490;8.736;2023-04-24T01:48:11;1.10;;;0.73;;
70953;SDS011;58618;47.490;8.736;2023-04-24T01:50:58;0.70;;;0.60;;
70953;SDS011;58618;47.490;8.736;2023-04-24T01:53:46;0.60;;;0.60;;
70953;SDS011;58618;47.490;8.736;2023-04-24T01:56:35;0.75;;;0.60;;
70953;SDS011;58618;47.490;8.736;2023-04-24T01:59:26;0.70;;;0.50;;
70953;SDS011;58618;47.490;8.736;2023-04-24T02:02:15;0.70;;;0.60;;
70953;SDS011;58618;47.490;8.736;2023-04-24T02:05:02;0.50;;;0.50;;
70953;SDS011;58618;47.490;8.736;2023-04-24T02:07:52;0.60;;;0.50;;
70953;SDS011;58618;47.490;8.736;2023-04-24T02:10:39;1.95;;;0.60;;
70953;SDS011;58618;47.490;8.736;2023-04-24T02:13:28;0.70;;;0.68;;
70953;SDS011;58618;47.490;8.736;2023-04-24T02:16:16;0.50;;;0.50;;
70953;SDS011;58618;47.490;8.736;2023-04-24T02:19:03;0.70;;;0.57;;
70953;SDS011;58618;47.490;8.736;2023-04-24T02:21:50;0.60;;;0.50;;
70953;SDS011;58618;47.490;8.736;2023-04-24T02:24:38;0.50;;;0.50;;
70953;SDS011;58618;47.490;8.736;2023-04-24T02:27:25;0.60;;;0.52;;
70953;SDS011;58618;47.490;8.736;2023-04-24T02:30:14;0.63;;;0.60;;
70953;SDS011;58618;47.490;8.736;2023-04-24T02:33:01;0.80;;;0.50;;
70953;SDS011;58618;47.490;8.736;2023-04-24T02:35:49;0.73;;;0.50;;
70953;SDS011;58618;47.490;8.736;2023-04-24T02:38:36;0.50;;;0.50;;
70953;SDS011;58618;47.490;8.736;2023-04-24T02:41:23;1.85;;;0.60;;
70953;SDS011;58618;47.490;8.736;2023-04-24T02:44:11;1.20;;;0.65;;
70953;SDS011;58618;47.490;8.736;2023-04-24T02:46:59;0.70;;;0.50;;
70953;SDS011;58618;47.490;8.736;2023-04-24T02:49:46;0.52;;;0.50;;
70953;SDS011;58618;47.490;8.736;2023-04-24T02:52:34;0.40;;;0.40;;
70953;SDS011;58618;47.490;8.736;2023-04-24T02:55:21;0.50;;;0.50;;
70953;SDS011;58618;47.490;8.736;2023-04-24T02:58:08;3.15;;;0.45;;
70953;SDS011;58618;47.490;8.736;2023-04-24T03:00:56;0.57;;;0.50;;
70953;SDS011;58618;47.490;8.736;2023-04-24T03:03:45;0.40;;;0.40;;
70953;SDS011;58618;47.490;8.736;2023-04-24T03:06:32;0.50;;;0.50;;
70953;SDS011;58618;47.490;8.736;2023-04-24T03:09:21;0.50;;;0.50;;
70953;SDS011;58618;47.490;8.736;2023-04-24T03:12:08;0.40;;;0.40;;
70953;SDS011;58618;47.490;8.736;2023-04-24T03:14:56;0.50;;;0.50;;
70953;SDS011;58618;47.490;8.736;2023-04-24T03:17:46;0.60;;;0.57;;
70953;SDS011;58618;47.490;8.736;2023-04-24T03:20:35;0.50;;;0.50;;
70953;SDS011;58618;47.490;8.736;2023-04-24T03:23:22;0.55;;;0.50;;
70953;SDS011;58618;47.490;8.736;2023-04-24T03:26:10;0.60;;;0.60;;
70953;SDS011;58618;47.490;8.736;2023-04-24T03:28:57;0.50;;;0.50;;
70953;SDS011;58618;47.490;8.736;2023-04-24T03:31:44;0.50;;;0.50;;
70953;SDS011;58618;47.490;8.736;2023-04-24T03:34:32;0.55;;;0.50;;
70953;SDS011;58618;47.490;8.736;2023-04-24T03:37:20;0.57;;;0.50;;
70953;SDS011;58618;47.490;8.736;2023-04-24T03:40:08;0.50;;;0.50;;
70953;SDS011;58618;47.490;8.736;2023-04-24T03:42:56;0.60;;;0.60;;
70953;SDS011;58618;47.490;8.736;2023-04-24T03:45:43;0.80;;;0.57;;
70953;SDS011;58618;47.490;8.736;2023-04-24T03:48:30;0.60;;;0.50;;
70953;SDS011;58618;47.490;8.736;2023-04-24T03:51:18;0.50;;;0.45;;
70953;SDS011;58618;47.490;8.736;2023-04-24T03:54:06;0.50;;;0.50;;
70953;SDS011;58618;47.490;8.736;2023-04-24T03:56:54;0.40;;;0.40;;
70953;SDS011;58618;47.490;8.736;2023-04-24T03:59:41;0.80;;;0.60;;
70953;SDS011;58618;47.490;8.736;2023-04-24T04:02:28;0.50;;;0.50;;
70953;SDS011;58618;47.490;8.736;2023-04-24T04:05:16;0.70;;;0.50;;
70953;SDS011;58618;47.490;8.736;2023-04-24T04:08:03;0.50;;;0.50;;
70953;SDS011;58618;47.490;8.736;2023-04-24T04:10:52;0.50;;;0.50;;
70953;SDS011;58618;47.490;8.736;2023-04-24T04:13:39;0.50;;;0.50;;
70953;SDS011;58618;47.490;8.736;2023-04-24T04:16:26;0.50;;;0.50;;
70953;SDS011;58618;47.490;8.736;2023-04-24T04:19:13;0.80;;;0.55;;
70953;SDS011;58618;47.490;8.736;2023-04-24T04:22:01;0.60;;;0.60;;
70953;SDS011;58618;47.490;8.736;2023-04-24T04:24:48;0.83;;;0.47;;
70953;SDS011;58618;47.490;8.736;2023-04-24T04:27:38;0.50;;;0.50;;
70953;SDS011;58618;47.490;8.736;2023-04-24T04:30:27;0.82;;;0.50;;
70953;SDS011;58618;47.490;8.736;2023-04-24T04:33:15;0.50;;;0.50;;
70953;SDS011;58618;47.490;8.736;2023-04-24T04:36:03;0.60;;;0.50;;
70953;SDS011;58618;47.490;8.736;2023-04-24T04:38:50;0.77;;;0.50;;
70953;SDS011;58618;47.490;8.736;2023-04-24T04:41:37;0.40;;;0.40;;
70953;SDS011;58618;47.490;8.736;2023-04-24T04:44:27;0.60;;;0.50;;
70953;SDS011;58618;47.490;8.736;2023-04-24T04:47:16;0.50;;;0.50;;
70953;SDS011;58618;47.490;8.736;2023-04-24T04:50:04;0.93;;;0.50;;
70953;SDS011;58618;47.490;8.736;2023-04-24T04:52:52;0.50;;;0.50;;
70953;SDS011;58618;47.490;8.736;2023-04-24T04:55:39;0.68;;;0.50;;
70953;SDS011;58618;47.490;8.736;2023-04-24T04:58:27;1.13;;;0.50;;
70953;SDS011;58618;47.490;8.736;2023-04-24T05:01:15;0.50;;;0.50;;
70953;SDS011;58618;47.490;8.736;2023-04-24T05:04:03;0.65;;;0.60;;
70953;SDS011;58618;47.490;8.736;2023-04-24T05:06:50;1.90;;;0.50;;
70953;SDS011;58618;47.490;8.736;2023-04-24T05:09:37;0.50;;;0.40;;
70953;SDS011;58618;47.490;8.736;2023-04-24T05:12:25;0.57;;;0.50;;
70953;SDS011;58618;47.490;8.736;2023-04-24T05:15:13;0.50;;;0.50;;
70953;SDS011;58618;47.490;8.736;2023-04-24T05:18:01;0.70;;;0.60;;
70953;SDS011;58618;47.490;8.736;2023-04-24T05:20:49;0.80;;;0.60;;
70953;SDS011;58618;47.490;8.736;2023-04-24T05:23:36;0.73;;;0.60;;
70953;SDS011;58618;47.490;8.736;2023-04-24T05:26:23;0.75;;;0.60;;
70953;SDS011;58618;47.490;8.736;2023-04-24T05:29:11;0.50;;;0.50;;
70953;SDS011;58618;47.490;8.736;2023-04-24T05:31:58;0.50;;;0.50;;
70953;SDS011;58618;47.490;8.736;2023-04-24T05:34:48;0.50;;;0.50;;
70953;SDS011;58618;47.490;8.736;2023-04-24T05:37:35;0.80;;;0.70;;
70953;SDS011;58618;47.490;8.736;2023-04-24T05:40:23;1.30;;;0.70;;
70953;SDS011;58618;47.490;8.736;2023-04-24T05:43:10;0.85;;;0.70;;
70953;SDS011;58618;47.490;8.736;2023-04-24T05:45:58;0.70;;;0.65;;
70953;SDS011;58618;47.490;8.736;2023-04-24T05:48:45;0.70;;;0.67;;
70953;SDS011;58618;47.490;8.736;2023-04-24T05:51:34;0.88;;;0.70;;
70953;SDS011;58618;47.490;8.736;2023-04-24T05:54:21;1.30;;;0.90;;
70953;SDS011;58618;47.490;8.736;2023-04-24T05:57:09;2.28;;;0.70;;
70953;SDS011;58618;47.490;8.736;2023-04-24T05:59:56;0.95;;;0.70;;
70953;SDS011;58618;47.490;8.736;2023-04-24T06:02:44;1.40;;;0.90;;
70953;SDS011;58618;47.490;8.736;2023-04-24T06:05:31;1.33;;;0.90;;
70953;SDS011;58618;47.490;8.736;2023-04-24T06:08:20;1.25;;;0.93;;
70953;SDS011;58618;47.490;8.736;2023-04-24T06:11:07;1.02;;;0.85;;
70953;SDS011;58618;47.490;8.736;2023-04-24T06:13:54;1.00;;;0.85;;
70953;SDS011;58618;47.490;8.736;2023-04-24T06:16:41;1.10;;;0.97;;
70953;SDS011;58618;47.490;8.736;2023-04-24T06:19:29;2.03;;;0.93;;
70953;SDS011;58618;47.490;8.736;2023-04-24T06:22:16;1.20;;;0.93;;
70953;SDS011;58618;47.490;8.736;2023-04-24T06:25:05;1.83;;;1.20;;
70953;SDS011;58618;47.490;8.736;2023-04-24T06:27:53;1.83;;;1.30;;
70953;SDS011;58618;47.490;8.736;2023-04-24T06:30:41;1.37;;;1.10;;
70953;SDS011;58618;47.490;8.736;2023-04-24T06:33:29;1.50;;;1.15;;
70953;SDS011;58618;47.490;8.736;2023-04-24T06:36:16;2.10;;;1.10;;
70953;SDS011;58618;47.490;8.736;2023-04-24T06:39:03;2.03;;;1.10;;
70953;SDS011;58618;47.490;8.736;2023-04-24T06:41:52;2.10;;;1.50;;
70953;SDS011;58618;47.490;8.736;2023-04-24T06:44:39;1.70;;;1.40;;
70953;SDS011;58618;47.490;8.736;2023-04-24T06:47:27;1.40;;;1.30;;
70953;SDS011;58618;47.490;8.736;2023-04-24T06:50:14;1.90;;;1.38;;
70953;SDS011;58618;47.490;8.736;2023-04-24T06:53:02;1.27;;;1.17;;
70953;SDS011;58618;47.490;8.736;2023-04-24T06:55:49;1.75;;;1.48;;
70953;SDS011;58618;47.490;8.736;2023-04-24T06:58:38;1.53;;;1.00;;
70953;SDS011;58618;47.490;8.736;2023-04-24T07:01:26;2.92;;;1.02;;
70953;SDS011;58618;47.490;8.736;2023-04-24T07:04:13;1.30;;;0.80;;
70953;SDS011;58618;47.490;8.736;2023-04-24T07:07:02;1.55;;;1.25;;
70953;SDS011;58618;47.490;8.736;2023-04-24T07:09:50;1.02;;;0.93;;
70953;SDS011;58618;47.490;8.736;2023-04-24T07:12:37;1.30;;;1.00;;
70953;SDS011;58618;47.490;8.736;2023-04-24T07:15:27;1.63;;;1.00;;
70953;SDS011;58618;47.490;8.736;2023-04-24T07:18:14;1.33;;;1.15;;
70953;SDS011;58618;47.490;8.736;2023-04-24T07:21:02;1.20;;;1.00;;
70953;SDS011;58618;47.490;8.736;2023-04-24T07:23:49;1.58;;;1.30;;
70953;SDS011;58618;47.490;8.736;2023-04-24T07:26:37;1.00;;;0.90;;
70953;SDS011;58618;47.490;8.736;2023-04-24T07:29:25;1.58;;;1.20;;
70953;SDS011;58618;47.490;8.736;2023-04-24T07:32:13;1.63;;;1.10;;
70953;SDS011;58618;47.490;8.736;2023-04-24T07:35:01;2.03;;;1.35;;
70953;SDS011;58618;47.490;8.736;2023-04-24T07:37:48;1.33;;;1.10;;
70953;SDS011;58618;47.490;8.736;2023-04-24T07:40:36;2.43;;;0.80;;
70953;SDS011;58618;47.490;8.736;2023-04-24T07:43:23;0.95;;;0.80;;
70953;SDS011;58618;47.490;8.736;2023-04-24T07:46:10;1.00;;;0.90;;
70953;SDS011;58618;47.490;8.736;2023-04-24T07:48:59;1.45;;;0.95;;
70953;SDS011;58618;47.490;8.736;2023-04-24T07:51:47;1.67;;;0.90;;
70953;SDS011;58618;47.490;8.736;2023-04-24T07:54:34;1.10;;;0.90;;
70953;SDS011;58618;47.490;8.736;2023-04-24T07:57:22;1.25;;;1.05;;
70953;SDS011;58618;47.490;8.736;2023-04-24T08:00:11;1.00;;;0.90;;
70953;SDS011;58618;47.490;8.736;2023-04-24T08:02:59;1.40;;;1.10;;
70953;SDS011;58618;47.490;8.736;2023-04-24T08:05:47;2.60;;;1.30;;
70953;SDS011;58618;47.490;8.736;2023-04-24T08:08:36;2.63;;;1.40;;
70953;SDS011;58618;47.490;8.736;2023-04-24T08:11:24;2.38;;;1.50;;
70953;SDS011;58618;47.490;8.736;2023-04-24T08:14:11;1.90;;;1.45;;
70953;SDS011;58618;47.490;8.736;2023-04-24T08:17:00;1.70;;;1.40;;
70953;SDS011;58618;47.490;8.736;2023-04-24T08:19:48;1.60;;;1.10;;
70953;SDS011;58618;47.490;8.736;2023-04-24T08:22:38;3.17;;;1.43;;
70953;SDS011;58618;47.490;8.736;2023-04-24T08:25:25;1.73;;;1.42;;
70953;SDS011;58618;47.490;8.736;2023-04-24T08:28:13;1.52;;;1.25;;
70953;SDS011;58618;47.490;8.736;2023-04-24T08:31:05;1.88;;;1.20;;
70953;SDS011;58618;47.490;8.736;2023-04-24T08:33:53;1.65;;;1.10;;
70953;SDS011;58618;47.490;8.736;2023-04-24T08:36:40;2.10;;;1.43;;
70953;SDS011;58618;47.490;8.736;2023-04-24T08:39:29;2.00;;;1.30;;
70953;SDS011;58618;47.490;8.736;2023-04-24T08:42:16;6.93;;;1.38;;
70953;SDS011;58618;47.490;8.736;2023-04-24T08:45:04;2.08;;;1.25;;
70953;SDS011;58618;47.490;8.736;2023-04-24T08:47:52;2.38;;;1.33;;
70953;SDS011;58618;47.490;8.736;2023-04-24T08:50:40;2.63;;;1.43;;
70953;SDS011;58618;47.490;8.736;2023-04-24T08:53:30;1.70;;;1.40;;
70953;SDS011;58618;47.490;8.736;2023-04-24T08:56:21;2.15;;;1.42;;
70953;SDS011;58618;47.490;8.736;2023-04-24T08:59:09;3.45;;;1.70;;
70953;SDS011;58618;47.490;8.736;2023-04-24T09:01:58;5.03;;;1.83;;
70953;SDS011;58618;47.490;8.736;2023-04-24T09:04:46;2.83;;;1.77;;
70953;SDS011;58618;47.490;8.736;2023-04-24T09:07:34;2.45;;;1.40;;
70953;SDS011;58618;47.490;8.736;2023-04-24T09:10:23;3.80;;;1.58;;
70953;SDS011;58618;47.490;8.736;2023-04-24T09:13:13;2.30;;;1.63;;
70953;SDS011;58618;47.490;8.736;2023-04-24T09:16:01;3.08;;;1.50;;
70953;SDS011;58618;47.490;8.736;2023-04-24T09:18:49;1.97;;;1.60;;
70953;SDS011;58618;47.490;8.736;2023-04-24T09:21:36;2.15;;;1.50;;
70953;SDS011;58618;47.490;8.736;2023-04-24T09:24:23;2.03;;;1.40;;
70953;SDS011;58618;47.490;8.736;2023-04-24T09:27:11;2.03;;;1.50;;
70953;SDS011;58618;47.490;8.736;2023-04-24T09:30:01;1.67;;;1.45;;
70953;SDS011;58618;47.490;8.736;2023-04-24T09:32:48;1.90;;;1.40;;
70953;SDS011;58618;47.490;8.736;2023-04-24T09:35:36;2.50;;;1.60;;
70953;SDS011;58618;47.490;8.736;2023-04-24T09:38:30;2.10;;;1.60;;
70953;SDS011;58618;47.490;8.736;2023-04-24T09:41:18;2.88;;;1.70;;
70953;SDS011;58618;47.490;8.736;2023-04-24T09:44:10;4.72;;;1.63;;
70953;SDS011;58618;47.490;8.736;2023-04-24T09:47:03;1.63;;;1.20;;
70953;SDS011;58618;47.490;8.736;2023-04-24T09:49:57;1.88;;;1.38;;
70953;SDS011;58618;47.490;8.736;2023-04-24T09:52:45;5.00;;;1.73;;
70953;SDS011;58618;47.490;8.736;2023-04-24T09:55:35;1.73;;;1.30;;
70953;SDS011;58618;47.490;8.736;2023-04-24T09:58:26;3.63;;;1.67;;
70953;SDS011;58618;47.490;8.736;2023-04-24T10:01:13;3.60;;;1.40;;
70953;SDS011;58618;47.490;8.736;2023-04-24T10:04:02;1.88;;;1.00;;
70953;SDS011;58618;47.490;8.736;2023-04-24T10:06:50;1.92;;;1.50;;
70953;SDS011;58618;47.490;8.736;2023-04-24T10:09:38;2.67;;;1.45;;
70953;SDS011;58618;47.490;8.736;2023-04-24T10:12:26;3.08;;;1.67;;
70953;SDS011;58618;47.490;8.736;2023-04-24T10:15:14;2.03;;;1.30;;
70953;SDS011;58618;47.490;8.736;2023-04-24T10:18:06;2.75;;;1.67;;
70953;SDS011;58618;47.490;8.736;2023-04-24T10:20:56;1.85;;;1.25;;
70953;SDS011;58618;47.490;8.736;2023-04-24T10:23:44;3.00;;;1.35;;
70953;SDS011;58618;47.490;8.736;2023-04-24T10:26:32;2.67;;;1.70;;
70953;SDS011;58618;47.490;8.736;2023-04-24T10:29:20;2.10;;;1.40;;
70953;SDS011;58618;47.490;8.736;2023-04-24T10:32:08;2.10;;;1.40;;
70953;SDS011;58618;47.490;8.736;2023-04-24T10:34:57;2.00;;;1.00;;
70953;SDS011;58618;47.490;8.736;2023-04-24T10:37:46;3.53;;;1.48;;
70953;SDS011;58618;47.490;8.736;2023-04-24T10:40:37;3.13;;;1.50;;
70953;SDS011;58618;47.490;8.736;2023-04-24T10:43:24;3.30;;;1.47;;
70953;SDS011;58618;47.490;8.736;2023-04-24T10:46:16;1.58;;;1.27;;
70953;SDS011;58618;47.490;8.736;2023-04-24T10:49:06;2.95;;;1.40;;
70953;SDS011;58618;47.490;8.736;2023-04-24T10:51:54;2.30;;;1.50;;
70953;SDS011;58618;47.490;8.736;2023-04-24T10:54:48;1.92;;;1.52;;
70953;SDS011;58618;47.490;8.736;2023-04-24T10:57:36;3.23;;;1.40;;
70953;SDS011;58618;47.490;8.736;2023-04-24T11:00:24;2.53;;;1.40;;
70953;SDS011;58618;47.490;8.736;2023-04-24T11:03:22;3.70;;;1.50;;
70953;SDS011;58618;47.490;8.736;2023-04-24T11:06:11;2.00;;;1.40;;
70953;SDS011;58618;47.490;8.736;2023-04-24T11:09:03;2.28;;;1.58;;
70953;SDS011;58618;47.490;8.736;2023-04-24T11:12:02;2.27;;;1.30;;
70953;SDS011;58618;47.490;8.736;2023-04-24T11:15:01;4.40;;;1.67;;
70953;SDS011;58618;47.490;8.736;2023-04-24T11:17:48;1.77;;;1.40;;
70953;SDS011;58618;47.490;8.736;2023-04-24T11:20:38;3.47;;;1.60;;
70953;SDS011;58618;47.490;8.736;2023-04-24T11:23:29;2.00;;;1.60;;
70953;SDS011;58618;47.490;8.736;2023-04-24T11:26:22;2.33;;;1.50;;
70953;SDS011;58618;47.490;8.736;2023-04-24T11:29:17;3.15;;;1.33;;
70953;SDS011;58618;47.490;8.736;2023-04-24T11:32:17;4.50;;;1.48;;
70953;SDS011;58618;47.490;8.736;2023-04-24T11:35:09;2.75;;;1.75;;
70953;SDS011;58618;47.490;8.736;2023-04-24T11:38:00;1.60;;;1.33;;
70953;SDS011;58618;47.490;8.736;2023-04-24T11:40:48;3.63;;;1.40;;
70953;SDS011;58618;47.490;8.736;2023-04-24T11:43:36;2.45;;;1.10;;
70953;SDS011;58618;47.490;8.736;2023-04-24T11:46:28;2.53;;;1.52;;
70953;SDS011;58618;47.490;8.736;2023-04-24T11:49:17;3.22;;;1.30;;
70953;SDS011;58618;47.490;8.736;2023-04-24T11:52:05;2.15;;;1.30;;
70953;SDS011;58618;47.490;8.736;2023-04-24T11:54:53;1.93;;;1.30;;
70953;SDS011;58618;47.490;8.736;2023-04-24T11:57:41;1.83;;;1.50;;
70953;SDS011;58618;47.490;8.736;2023-04-24T12:00:30;2.03;;;1.40;;
70953;SDS011;58618;47.490;8.736;2023-04-24T12:03:21;2.17;;;1.40;;
70953;SDS011;58618;47.490;8.736;2023-04-24T12:06:09;2.35;;;1.20;;
70953;SDS011;58618;47.490;8.736;2023-04-24T12:08:57;2.10;;;1.10;;
70953;SDS011;58618;47.490;8.736;2023-04-24T12:11:52;2.47;;;1.30;;
70953;SDS011;58618;47.490;8.736;2023-04-24T12:14:49;3.03;;;1.20;;
70953;SDS011;58618;47.490;8.736;2023-04-24T12:17:37;1.90;;;1.45;;
70953;SDS011;58618;47.490;8.736;2023-04-24T12:20:30;1.38;;;1.00;;
70953;SDS011;58618;47.490;8.736;2023-04-24T12:23:33;2.67;;;1.27;;
70953;SDS011;58618;47.490;8.736;2023-04-24T12:26:24;1.45;;;1.30;;
70953;SDS011;58618;47.490;8.736;2023-04-24T12:29:11;1.83;;;1.40;;
70953;SDS011;58618;47.490;8.736;2023-04-24T12:32:15;4.03;;;1.73;;
70953;SDS011;58618;47.490;8.736;2023-04-24T12:35:03;2.70;;;1.20;;
70953;SDS011;58618;47.490;8.736;2023-04-24T12:37:53;1.60;;;1.30;;
70953;SDS011;58618;47.490;8.736;2023-04-24T12:40:41;1.88;;;1.30;;
70953;SDS011;58618;47.490;8.736;2023-04-24T12:43:29;2.17;;;1.20;;
70953;SDS011;58618;47.490;8.736;2023-04-24T12:46:16;2.13;;;1.17;;
70953;SDS011;58618;47.490;8.736;2023-04-24T12:49:04;3.25;;;1.20;;
70953;SDS011;58618;47.490;8.736;2023-04-24T12:51:51;2.60;;;1.27;;
70953;SDS011;58618;47.490;8.736;2023-04-24T12:54:40;2.60;;;1.52;;
70953;SDS011;58618;47.490;8.736;2023-04-24T12:57:27;1.95;;;1.40;;
70953;SDS011;58618;47.490;8.736;2023-04-24T13:00:16;1.92;;;1.40;;
70953;SDS011;58618;47.490;8.736;2023-04-24T13:03:04;1.75;;;1.20;;
70953;SDS011;58618;47.490;8.736;2023-04-24T13:05:52;3.20;;;1.47;;
70953;SDS011;58618;47.490;8.736;2023-04-24T13:08:39;1.45;;;1.30;;
70953;SDS011;58618;47.490;8.736;2023-04-24T13:11:28;1.90;;;1.40;;
70953;SDS011;58618;47.490;8.736;2023-04-24T13:14:16;3.00;;;1.40;;
70953;SDS011;58618;47.490;8.736;2023-04-24T13:17:04;1.73;;;1.23;;
70953;SDS011;58618;47.490;8.736;2023-04-24T13:19:54;3.67;;;1.33;;
70953;SDS011;58618;47.490;8.736;2023-04-24T13:22:42;1.30;;;1.02;;
70953;SDS011;58618;47.490;8.736;2023-04-24T13:28:26;2.28;;;1.20;;
70953;SDS011;58618;47.490;8.736;2023-04-24T13:31:13;2.50;;;1.33;;
70953;SDS011;58618;47.490;8.736;2023-04-24T13:34:01;2.23;;;1.13;;
70953;SDS011;58618;47.490;8.736;2023-04-24T13:36:49;1.98;;;1.42;;
70953;SDS011;58618;47.490;8.736;2023-04-24T13:39:36;1.58;;;1.33;;
70953;SDS011;58618;47.490;8.736;2023-04-24T13:42:24;3.42;;;1.20;;
70953;SDS011;58618;47.490;8.736;2023-04-24T13:45:12;1.83;;;1.52;;
70953;SDS011;58618;47.490;8.736;2023-04-24T13:48:00;2.47;;;1.43;;
70953;SDS011;58618;47.490;8.736;2023-04-24T13:50:48;1.42;;;1.23;;
70953;SDS011;58618;47.490;8.736;2023-04-24T13:53:36;3.10;;;1.38;;
70953;SDS011;58618;47.490;8.736;2023-04-24T13:56:24;2.35;;;1.30;;
70953;SDS011;58618;47.490;8.736;2023-04-24T13:59:11;1.75;;;1.08;;
70953;SDS011;58618;47.490;8.736;2023-04-24T14:02:00;4.37;;;1.50;;
70953;SDS011;58618;47.490;8.736;2023-04-24T14:04:48;1.65;;;1.20;;
70953;SDS011;58618;47.490;8.736;2023-04-24T14:07:35;2.17;;;1.27;;
70953;SDS011;58618;47.490;8.736;2023-04-24T14:10:22;3.35;;;1.30;;
70953;SDS011;58618;47.490;8.736;2023-04-24T14:13:10;3.05;;;1.25;;
70953;SDS011;58618;47.490;8.736;2023-04-24T14:15:57;2.77;;;1.70;;
70953;SDS011;58618;47.490;8.736;2023-04-24T14:18:46;1.85;;;1.45;;
70953;SDS011;58618;47.490;8.736;2023-04-24T14:21:33;2.58;;;1.50;;
70953;SDS011;58618;47.490;8.736;2023-04-24T14:24:21;1.92;;;1.27;;
70953;SDS011;58618;47.490;8.736;2023-04-24T14:27:08;2.67;;;1.67;;
70953;SDS011;58618;47.490;8.736;2023-04-24T14:29:55;1.70;;;1.30;;
70953;SDS011;58618;47.490;8.736;2023-04-24T14:32:43;1.98;;;1.35;;
70953;SDS011;58618;47.490;8.736;2023-04-24T14:35:31;1.48;;;1.20;;
70953;SDS011;58618;47.490;8.736;2023-04-24T14:38:21;2.30;;;1.25;;
70953;SDS011;58618;47.490;8.736;2023-04-24T14:41:09;2.25;;;1.40;;
70953;SDS011;58618;47.490;8.736;2023-04-24T14:43:57;2.10;;;1.67;;
70953;SDS011;58618;47.490;8.736;2023-04-24T14:46:44;1.88;;;1.40;;
70953;SDS011;58618;47.490;8.736;2023-04-24T14:49:32;3.22;;;1.63;;
70953;SDS011;58618;47.490;8.736;2023-04-24T14:52:21;2.47;;;1.70;;
70953;SDS011;58618;47.490;8.736;2023-04-24T14:55:09;3.65;;;1.40;;
70953;SDS011;58618;47.490;8.736;2023-04-24T14:57:57;2.50;;;1.60;;
70953;SDS011;58618;47.490;8.736;2023-04-24T15:00:44;1.75;;;1.38;;
70953;SDS011;58618;47.490;8.736;2023-04-24T15:03:32;1.38;;;0.98;;
70953;SDS011;58618;47.490;8.736;2023-04-24T15:06:19;2.22;;;1.65;;
70953;SDS011;58618;47.490;8.736;2023-04-24T15:09:08;1.90;;;1.38;;
70953;SDS011;58618;47.490;8.736;2023-04-24T15:11:55;1.70;;;1.37;;
70953;SDS011;58618;47.490;8.736;2023-04-24T15:14:43;1.40;;;1.15;;
70953;SDS011;58618;47.490;8.736;2023-04-24T15:17:30;2.08;;;1.35;;
70953;SDS011;58618;47.490;8.736;2023-04-24T15:20:17;2.72;;;1.23;;
70953;SDS011;58618;47.490;8.736;2023-04-24T15:23:05;2.88;;;1.50;;
70953;SDS011;58618;47.490;8.736;2023-04-24T15:25:54;2.07;;;1.30;;
70953;SDS011;58618;47.490;8.736;2023-04-24T15:28:41;2.80;;;1.40;;
70953;SDS011;58618;47.490;8.736;2023-04-24T15:31:29;1.30;;;1.20;;
70953;SDS011;58618;47.490;8.736;2023-04-24T15:34:16;2.13;;;1.30;;
70953;SDS011;58618;47.490;8.736;2023-04-24T15:37:04;2.00;;;1.40;;
70953;SDS011;58618;47.490;8.736;2023-04-24T15:39:51;2.00;;;1.30;;
70953;SDS011;58618;47.490;8.736;2023-04-24T15:42:41;3.00;;;1.50;;
70953;SDS011;58618;47.490;8.736;2023-04-24T15:45:28;2.15;;;1.38;;
70953;SDS011;58618;47.490;8.736;2023-04-24T15:48:16;1.95;;;1.40;;
70953;SDS011;58618;47.490;8.736;2023-04-24T15:51:03;2.85;;;1.30;;
70953;SDS011;58618;47.490;8.736;2023-04-24T15:53:50;3.30;;;1.40;;
70953;SDS011;58618;47.490;8.736;2023-04-24T15:56:38;3.40;;;1.27;;
70953;SDS011;58618;47.490;8.736;2023-04-24T15:59:26;2.47;;;1.42;;
70953;SDS011;58618;47.490;8.736;2023-04-24T16:02:15;3.33;;;1.58;;
70953;SDS011;58618;47.490;8.736;2023-04-24T16:05:04;1.70;;;1.40;;
70953;SDS011;58618;47.490;8.736;2023-04-24T16:07:52;2.47;;;1.40;;
70953;SDS011;58618;47.490;8.736;2023-04-24T16:10:39;1.50;;;1.35;;
70953;SDS011;58618;47.490;8.736;2023-04-24T16:13:27;2.45;;;1.48;;
70953;SDS011;58618;47.490;8.736;2023-04-24T16:16:15;2.63;;;1.58;;
70953;SDS011;58618;47.490;8.736;2023-04-24T16:19:03;2.08;;;1.30;;
70953;SDS011;58618;47.490;8.736;2023-04-24T16:21:51;1.93;;;1.40;;
70953;SDS011;58618;47.490;8.736;2023-04-24T16:24:40;1.75;;;1.30;;
70953;SDS011;58618;47.490;8.736;2023-04-24T16:27:29;2.30;;;1.48;;
70953;SDS011;58618;47.490;8.736;2023-04-24T16:30:16;3.05;;;1.33;;
70953;SDS011;58618;47.490;8.736;2023-04-24T16:33:05;2.00;;;1.48;;
70953;SDS011;58618;47.490;8.736;2023-04-24T16:35:54;2.30;;;1.50;;
70953;SDS011;58618;47.490;8.736;2023-04-24T16:38:41;2.85;;;1.50;;
70953;SDS011;58618;47.490;8.736;2023-04-24T16:41:29;2.50;;;1.50;;
70953;SDS011;58618;47.490;8.736;2023-04-24T16:44:17;2.00;;;1.50;;
70953;SDS011;58618;47.490;8.736;2023-04-24T16:47:05;2.15;;;1.40;;
70953;SDS011;58618;47.490;8.736;2023-04-24T16:49:54;2.13;;;1.50;;
70953;SDS011;58618;47.490;8.736;2023-04-24T16:52:41;2.17;;;1.63;;
70953;SDS011;58618;47.490;8.736;2023-04-24T16:55:29;2.45;;;1.70;;
70953;SDS011;58618;47.490;8.736;2023-04-24T16:58:17;2.08;;;1.67;;